NCAR-RAP Real-Time Weather Data

Output produced by METARs form (17 July 2018  04:03 UTC)
found at http://weather.rap.ucar.edu/surface/
 
Conditions at: KDAB observed 17 July 2018  03:53 UTC
Temperature: 25.6°C (78°F)
Dewpoint: 25.6°C (78°F) [RH = 100%]
Pressure (altimeter): 30.07 inches Hg (1018.4 mb)
[Sea-level pressure: 1018.2 mb]
Winds: calm
Visibility: 10 or more miles (16+ km)
Ceiling: at least 12,000 feet AGL
Clouds: scattered clouds at 20000 feet AGL
Present Weather: no significant weather observed at this time
KDAB 170353Z 00000KT 10SM SCT200 26/26 A3007 RMK SLP182 T02560256

Conditions at: KDAB observed 17 July 2018  02:53 UTC
Temperature: 25.6°C (78°F)
Dewpoint: 25.0°C (77°F) [RH = 96%]
Pressure (altimeter): 30.09 inches Hg (1019.0 mb)
[Sea-level pressure: 1018.7 mb]
Winds: calm
Visibility: 10 or more miles (16+ km)
Ceiling: 20000 feet AGL
Clouds: few clouds at 6000 feet AGL
broken clouds at 20000 feet AGL
Present Weather: no significant weather observed at this time
KDAB 170253Z 00000KT 10SM FEW060 BKN200 26/25 A3009 RMK SLP187 T02560250 53013

Conditions at: KDAB observed 17 July 2018  01:53 UTC
Temperature: 26.1°C (79°F)
Dewpoint: 24.4°C (76°F) [RH = 90%]
Pressure (altimeter): 30.06 inches Hg (1018.0 mb)
[Sea-level pressure: 1017.9 mb]
Winds: calm
Visibility: 10 or more miles (16+ km)
Ceiling: 20000 feet AGL
Clouds: few clouds at 13000 feet AGL
broken clouds at 20000 feet AGL
Present Weather: no significant weather observed at this time
KDAB 170153Z 00000KT 10SM FEW130 BKN200 26/24 A3006 RMK SLP179 T02610244

Conditions at: KDAB observed 17 July 2018  00:53 UTC
Temperature: 26.1°C (79°F)
Dewpoint: 25.0°C (77°F) [RH = 94%]
Pressure (altimeter): 30.05 inches Hg (1017.7 mb)
[Sea-level pressure: 1017.6 mb]
Winds: calm
Visibility: 10 or more miles (16+ km)
Ceiling: 20000 feet AGL
Clouds: few clouds at 8000 feet AGL
scattered clouds at 13000 feet AGL
broken clouds at 20000 feet AGL
Present Weather: no significant weather observed at this time
KDAB 170053Z 00000KT 10SM FEW080 SCT130 BKN200 26/25 A3005 RMK SLP176 T02610250

Conditions at: KDAB observed 16 July 2018  23:53 UTC
Temperature: 27.2°C (81°F)
Dewpoint: 23.9°C (75°F) [RH = 82%]
Pressure (altimeter): 30.05 inches Hg (1017.7 mb)
[Sea-level pressure: 1017.4 mb]
Winds: calm
Visibility: 10 or more miles (16+ km)
Ceiling: 20000 feet AGL
Clouds: few clouds at 6500 feet AGL
scattered clouds at 11000 feet AGL
broken clouds at 20000 feet AGL
Present Weather: no significant weather observed at this time
KDAB 162353Z 00000KT 10SM FEW065 SCT110 BKN200 27/24 A3005 RMK SLP174 60000 T02720239 10339 20272 53006

Conditions at: KDAB observed 16 July 2018  22:53 UTC
Temperature: 27.8°C (82°F)
Dewpoint: 23.9°C (75°F) [RH = 79%]
Pressure (altimeter): 30.04 inches Hg (1017.4 mb)
[Sea-level pressure: 1017.0 mb]
Winds: from the WSW (240 degrees) at 5 MPH (4 knots; 2.1 m/s)
Visibility: 10 or more miles (16+ km)
Ceiling: 20000 feet AGL
Clouds: few clouds at 5500 feet AGL
scattered clouds at 11000 feet AGL
broken clouds at 20000 feet AGL
Present Weather: no significant weather observed at this time
KDAB 162253Z 24004KT 10SM FEW055 SCT110 BKN200 28/24 A3004 RMK TSE46 SLP170 TS MOVD N CB DSNT N NW T02780239

Conditions at: KDAB observed 16 July 2018  21:53 UTC
Temperature: 28.9°C (84°F)
Dewpoint: 24.4°C (76°F) [RH = 77%]
Pressure (altimeter): 30.03 inches Hg (1017.0 mb)
[Sea-level pressure: 1016.8 mb]
Winds: from the SW (220 degrees) at 7 MPH (6 knots; 3.1 m/s)
Visibility: 10 or more miles (16+ km)
Ceiling: 20000 feet AGL
Clouds: scattered clouds at 5500 feet AGL
scattered clouds at 11000 feet AGL
broken clouds at 20000 feet AGL
Present Weather: TS  (thunderstorm)
KDAB 162153Z 22006KT 10SM TS SCT055CB SCT110 BKN200 29/24 A3003 RMK LTG DSNT SW-N TSB12 SLP168 FRQ LTGICCG NW-NE TS NW-NE MOV N CB DSNT SE S T02890244

Conditions at: KDAB observed 16 July 2018  21:13 UTC
Temperature: 29.4°C (85°F)
Dewpoint: 23.9°C (75°F) [RH = 72%]
Pressure (altimeter): 30.02 inches Hg (1016.7 mb)
Winds: from the S (190 degrees) at 10 MPH (9 knots; 4.7 m/s)
Visibility: 10 or more miles (16+ km)
Ceiling: 20000 feet AGL
Clouds: scattered clouds at 5500 feet AGL
scattered clouds at 11000 feet AGL
broken clouds at 20000 feet AGL
Present Weather: TS  (thunderstorm)
KDAB 162113Z 19009KT 10SM TS SCT055CB SCT110 BKN200 29/24 A3002 RMK TSB12 FRQ LTGICCG W-N TS W-N MOV N CB NE MOV N T02940239

Conditions at: KDAB observed 16 July 2018  20:53 UTC
Temperature: 30.0°C (86°F)
Dewpoint: 22.8°C (73°F) [RH = 65%]
Pressure (altimeter): 30.02 inches Hg (1016.7 mb)
[Sea-level pressure: 1016.4 mb]
Winds: from the S (180 degrees) at 8 MPH (7 knots; 3.6 m/s)
Visibility: 10 or more miles (16+ km)
Ceiling: 20000 feet AGL
Clouds: scattered clouds at 5000 feet AGL
scattered clouds at 11000 feet AGL
broken clouds at 20000 feet AGL
Present Weather: no significant weather observed at this time
KDAB 162053Z 18007KT 10SM SCT050CB SCT110 BKN200 30/23 A3002 RMK LTG DSNT SW-N RAE11 SLP164 CB W-N MOV N CB DSNT S P0000 60000 T03000228 56014

Conditions at: KDAB observed 16 July 2018  19:53 UTC
Temperature: 29.4°C (85°F)
Dewpoint: 23.3°C (74°F) [RH = 70%]
Pressure (altimeter): 30.03 inches Hg (1017.0 mb)
Winds: from the SE (130 degrees) at 8 MPH (7 knots; 3.6 m/s)
Visibility: 10 or more miles (16+ km)
Ceiling: 15000 feet AGL
Clouds: scattered clouds at 5000 feet AGL
scattered clouds at 11000 feet AGL
broken clouds at 15000 feet AGL
Present Weather: -RA  (light rain)
KDAB 161953Z 13007KT 100V160 10SM -RA SCT050 SCT110 BKN150 29/23 A3003 RMK LTG DSNT S AND SW RAB49 TSE49 TS DSIPTD P0000 T02940233

Conditions at: KDAB observed 16 July 2018  18:53 UTC
Temperature: 33.0°C (91°F)
Dewpoint: 23.0°C (73°F) [RH = 56%]
Pressure (altimeter): 30.04 inches Hg (1017.4 mb)
[Sea-level pressure: 1017.0 mb]
Winds: from the WSW (240 degrees) at 6 MPH (5 knots; 2.6 m/s)
Visibility: 10 or more miles (16+ km)
Ceiling: 5000 feet AGL
Clouds: broken clouds at 5000 feet AGL
broken clouds at 15000 feet AGL
Present Weather: no significant weather observed at this time
KDAB 161853Z 24005KT 10SM BKN050CB BKN150 33/23 A3004 RMK TSB43 SLP170 FRQ LTGICCG OHD-SE-S TS OHD-SE-S MOV NE

Conditions at: KDAB observed 16 July 2018  18:43 UTC
Temperature: 33.0°C (91°F)
Dewpoint: 23.0°C (73°F) [RH = 56%]
Pressure (altimeter): 30.04 inches Hg (1017.4 mb)
Winds: calm
Visibility: 10 or more miles (16+ km)
Ceiling: 5000 feet AGL
Clouds: broken clouds at 5000 feet AGL
broken clouds at 15000 feet AGL
Present Weather: no significant weather observed at this time
KDAB 161843Z 00000KT 10SM BKN050CB BKN150 33/23 A3004 RMK TSB43 FRQ LTGICCG SE-S TS SE-S MOV NE

Conditions at: KDAB observed 16 July 2018  17:53 UTC
Temperature: 32.8°C (91°F)
Dewpoint: 23.9°C (75°F) [RH = 60%]
Pressure (altimeter): 30.06 inches Hg (1018.0 mb)
[Sea-level pressure: 1017.8 mb]
Winds: from the SSW (210 degrees) at 6 MPH (5 knots; 2.6 m/s)
Visibility: 10 or more miles (16+ km)
Ceiling: 15000 feet AGL
Clouds: scattered clouds at 4500 feet AGL
broken clouds at 15000 feet AGL
Present Weather: no significant weather observed at this time
KDAB 161753Z 21005KT 10SM SCT045 BKN150 33/24 A3006 RMK SLP178 T03280239 10333 20256 51007

Conditions at: KDAB observed 16 July 2018  16:53 UTC
Temperature: 32.8°C (91°F)
Dewpoint: 25.0°C (77°F) [RH = 64%]
Pressure (altimeter): 30.07 inches Hg (1018.4 mb)
[Sea-level pressure: 1018.3 mb]
Winds: from the WSW (240 degrees) at 10 MPH (9 knots; 4.7 m/s)
Visibility: 10 or more miles (16+ km)
Ceiling: at least 12,000 feet AGL
Clouds: scattered clouds at 4200 feet AGL
scattered clouds at 5500 feet AGL
scattered clouds at 14000 feet AGL
Present Weather: no significant weather observed at this time
KDAB 161653Z 24009KT 10SM SCT042 SCT055 SCT140 33/25 A3007 RMK SLP183 T03280250

Conditions at: KDAB observed 16 July 2018  15:53 UTC
Temperature: 31.7°C (89°F)
Dewpoint: 24.4°C (76°F) [RH = 65%]
Pressure (altimeter): 30.09 inches Hg (1019.0 mb)
[Sea-level pressure: 1018.8 mb]
Winds: from the WSW (240 degrees) at 3 MPH (3 knots; 1.6 m/s)
Visibility: 10 or more miles (16+ km)
Ceiling: at least 12,000 feet AGL
Clouds: few clouds at 3000 feet AGL
scattered clouds at 11000 feet AGL
Present Weather: no significant weather observed at this time
KDAB 161553Z 24003KT 10SM FEW030 SCT110 32/24 A3009 RMK SLP188 CB DSNT NW T03170244

Conditions at: KDAB observed 16 July 2018  14:53 UTC
Temperature: 29.4°C (85°F)
Dewpoint: 25.0°C (77°F) [RH = 77%]
Pressure (altimeter): 30.09 inches Hg (1019.0 mb)
[Sea-level pressure: 1018.8 mb]
Winds: from the WSW (240 degrees) at 3 MPH (3 knots; 1.6 m/s)
Visibility: 10 or more miles (16+ km)
Ceiling: at least 12,000 feet AGL
Clouds: few clouds at 3000 feet AGL
scattered clouds at 10000 feet AGL
Present Weather: no significant weather observed at this time
KDAB 161453Z 24003KT 10SM FEW030 SCT100 29/25 A3009 RMK SLP188 T02940250 51007

Conditions at: KDAB observed 16 July 2018  13:53 UTC
Temperature: 28.9°C (84°F)
Dewpoint: 25.0°C (77°F) [RH = 80%]
Pressure (altimeter): 30.08 inches Hg (1018.7 mb)
[Sea-level pressure: 1018.5 mb]
Winds: from the S (180 degrees) at 6 MPH (5 knots; 2.6 m/s)
Visibility: 10 or more miles (16+ km)
Ceiling: at least 12,000 feet AGL
Clouds: few clouds at 3000 feet AGL
few clouds at 10000 feet AGL
Present Weather: no significant weather observed at this time
KDAB 161353Z 18005KT 10SM FEW030 FEW100 29/25 A3008 RMK SLP185 T02890250

Conditions at: KDAB observed 16 July 2018  12:53 UTC
Temperature: 27.2°C (81°F)
Dewpoint: 25.0°C (77°F) [RH = 88%]
Pressure (altimeter): 30.08 inches Hg (1018.7 mb)
[Sea-level pressure: 1018.5 mb]
Winds: from the SSW (210 degrees) at 3 MPH (3 knots; 1.6 m/s)
Visibility: 10 or more miles (16+ km)
Ceiling: at least 12,000 feet AGL
Clouds: few clouds at 10000 feet AGL
Present Weather: no significant weather observed at this time
KDAB 161253Z 21003KT 10SM FEW100 27/25 A3008 RMK SLP185 T02720250

Conditions at: KDAB observed 16 July 2018  11:53 UTC
Temperature: 25.6°C (78°F)
Dewpoint: 25.0°C (77°F) [RH = 96%]
Pressure (altimeter): 30.07 inches Hg (1018.4 mb)
[Sea-level pressure: 1018.1 mb]
Winds: from the SW (230 degrees) at 3 MPH (3 knots; 1.6 m/s)
Visibility: 9 miles (14 km)
Ceiling: 25000 feet AGL
Clouds: few clouds at 4000 feet AGL
few clouds at 14000 feet AGL
broken clouds at 25000 feet AGL
Present Weather: no significant weather observed at this time
KDAB 161153Z 23003KT 9SM FEW040 FEW140 BKN250 26/25 A3007 RMK SLP181 70129 T02560250 10256 20244 53011

Conditions at: KDAB observed 16 July 2018  10:53 UTC
Temperature: 24.4°C (76°F)
Dewpoint: 24.4°C (76°F) [RH = 100%]
Pressure (altimeter): 30.06 inches Hg (1018.0 mb)
[Sea-level pressure: 1017.7 mb]
Winds: calm
Visibility: 6 miles (10 km)
Ceiling: 25000 feet AGL
Clouds: few clouds at 12000 feet AGL
broken clouds at 25000 feet AGL
Present Weather: BR  (mist)
KDAB 161053Z 00000KT 6SM BR FEW120 BKN250 24/24 A3006 RMK SLP177 T02440244

Conditions at: KDAB observed 16 July 2018  09:53 UTC
Temperature: 24.4°C (76°F)
Dewpoint: 24.4°C (76°F) [RH = 100%]
Pressure (altimeter): 30.04 inches Hg (1017.4 mb)
[Sea-level pressure: 1017.2 mb]
Winds: from the S (180 degrees) at 5 MPH (4 knots; 2.1 m/s)
Visibility: 7 miles (11 km)
Ceiling: at least 12,000 feet AGL
Clouds: few clouds at 25000 feet AGL
Present Weather: no significant weather observed at this time
KDAB 160953Z 18004KT 7SM FEW250 24/24 A3004 RMK SLP172 T02440244

Conditions at: KDAB observed 16 July 2018  08:53 UTC
Temperature: 24.4°C (76°F)
Dewpoint: 24.4°C (76°F) [RH = 100%]
Pressure (altimeter): 30.04 inches Hg (1017.4 mb)
[Sea-level pressure: 1017.0 mb]
Winds: calm
Visibility: 8 miles (13 km)
Ceiling: at least 12,000 feet AGL
Clouds: few clouds at 25000 feet AGL
Present Weather: no significant weather observed at this time
KDAB 160853Z COR 00000KT 8SM FEW250 24/24 A3004 RMK SLP170 T02440244 55008

Conditions at: KDAB observed 16 July 2018  07:53 UTC
Temperature: 25.0°C (77°F)
Dewpoint: 25.0°C (77°F) [RH = 100%]
Pressure (altimeter): 30.03 inches Hg (1017.0 mb)
[Sea-level pressure: 1016.7 mb]
Winds: calm
Visibility: 8 miles (13 km)
Ceiling: at least 12,000 feet AGL
Clouds: few clouds at 25000 feet AGL
Present Weather: no significant weather observed at this time
KDAB 160753Z 00000KT 8SM FEW250 25/25 A3003 RMK SLP167 T02500250

Conditions at: KDAB observed 16 July 2018  06:53 UTC
Temperature: 25.0°C (77°F)
Dewpoint: 25.0°C (77°F) [RH = 100%]
Pressure (altimeter): 30.05 inches Hg (1017.7 mb)
[Sea-level pressure: 1017.3 mb]
Winds: calm
Visibility: 8 miles (13 km)
Ceiling: at least 12,000 feet AGL
Clouds: few clouds at 3000 feet AGL
few clouds at 25000 feet AGL
Present Weather: no significant weather observed at this time
KDAB 160653Z 00000KT 8SM FEW030 FEW250 25/25 A3005 RMK SLP173 T02500250

Conditions at: KDAB observed 16 July 2018  05:53 UTC
Temperature: 24.4°C (76°F)
Dewpoint: 24.4°C (76°F) [RH = 100%]
Pressure (altimeter): 30.06 inches Hg (1018.0 mb)
[Sea-level pressure: 1017.8 mb]
Winds: calm
Visibility: 9 miles (14 km)
Ceiling: at least 12,000 feet AGL
Clouds: few clouds at 3000 feet AGL
scattered clouds at 25000 feet AGL
Present Weather: no significant weather observed at this time
KDAB 160553Z 00000KT 9SM FEW030 SCT250 24/24 A3006 RMK SLP178 FRQ LTGIC DSNT S CB DSNT S 60000 T02440244 10278 202244 58003

Conditions at: KDAB observed 16 July 2018  04:53 UTC
Temperature: 25.0°C (77°F)
Dewpoint: 24.4°C (76°F) [RH = 96%]
Pressure (altimeter): 30.07 inches Hg (1018.4 mb)
[Sea-level pressure: 1018.1 mb]
Winds: calm
Visibility: 10 or more miles (16+ km)
Ceiling: at least 12,000 feet AGL
Clouds: scattered clouds at 25000 feet AGL
Present Weather: no significant weather observed at this time
KDAB 160453Z 00000KT 10SM SCT250 25/24 A3007 RMK SLP181 T02500244 403220233

Conditions at: KDAB observed 16 July 2018  03:53 UTC
Temperature: 26.1°C (79°F)
Dewpoint: 25.0°C (77°F) [RH = 94%]
Pressure (altimeter): 30.07 inches Hg (1018.4 mb)
[Sea-level pressure: 1018.1 mb]
Winds: calm
Visibility: 10 or more miles (16+ km)
Ceiling: at least 12,000 feet AGL
Clouds: few clouds at 25000 feet AGL
Present Weather: no significant weather observed at this time
KDAB 160353Z 00000KT 10SM FEW250 27/24 A3007 RMK SLP181 T02610250

Conditions at: KDAB observed 16 July 2018  02:53 UTC
Temperature: 26.1°C (79°F)
Dewpoint: 25.6°C (78°F) [RH = 97%]
Pressure (altimeter): 30.07 inches Hg (1018.4 mb)
[Sea-level pressure: 1018.1 mb]
Winds: calm
Visibility: 10 or more miles (16+ km)
Ceiling: at least 12,000 feet AGL
Clouds: few clouds at 2000 feet AGL
few clouds at 25000 feet AGL
Present Weather: no significant weather observed at this time
KDAB 160253Z 00000KT 10SM FEW020 FEW250 26/26 A3007 RMK RAB0158E07 SLP181 OCNL LTGIC DSNT S CB DSNT S P0000 60000 T02610256 51023

Conditions at: KDAB observed 16 July 2018  01:53 UTC
Temperature: 26.1°C (79°F)
Dewpoint: 26.1°C (79°F) [RH = 100%]
Pressure (altimeter): 30.04 inches Hg (1017.4 mb)
[Sea-level pressure: 1017.3 mb]
Winds: calm
Visibility: 9 miles (14 km)
Ceiling: at least 12,000 feet AGL
Clouds: few clouds at 25000 feet AGL
Present Weather: no significant weather observed at this time
KDAB 160153Z 00000KT 9SM FEW250 26/26 A3004 RMK SLP173 T02610261

Conditions at: KDAB observed 16 July 2018  00:53 UTC
Temperature: 27.2°C (81°F)
Dewpoint: 25.6°C (78°F) [RH = 91%]
Pressure (altimeter): 30.03 inches Hg (1017.0 mb)
[Sea-level pressure: 1016.8 mb]
Winds: calm
Visibility: 10 or more miles (16+ km)
Ceiling: at least 12,000 feet AGL
Clouds: few clouds at 6500 feet AGL
scattered clouds at 11000 feet AGL
scattered clouds at 25000 feet AGL
Present Weather: no significant weather observed at this time
KDAB 160053Z 00000KT 10SM FEW065 SCT110 SCT250 27/26 A3003 RMK SLP168 T02720256

Conditions at: KDAB observed 15 July 2018  23:53 UTC
Temperature: 27.8°C (82°F)
Dewpoint: 25.0°C (77°F) [RH = 85%]
Pressure (altimeter): 30.00 inches Hg (1016.0 mb)
[Sea-level pressure: 1015.8 mb]
Winds: calm
Visibility: 10 or more miles (16+ km)
Ceiling: at least 12,000 feet AGL
Clouds: few clouds at 6500 feet AGL
scattered clouds at 11000 feet AGL
scattered clouds at 25000 feet AGL
Present Weather: no significant weather observed at this time
KDAB 152353Z 00000KT 10SM FEW065 SCT110 SCT250 28/24 A3000 RMK SLP158 60030 T02780250 10311 20233 58006

Conditions at: KDAB observed 15 July 2018  22:53 UTC
Temperature: 28.9°C (84°F)
Dewpoint: 23.9°C (75°F) [RH = 74%]
Pressure (altimeter): 30.01 inches Hg (1016.3 mb)
[Sea-level pressure: 1016.2 mb]
Winds: calm
Visibility: 10 or more miles (16+ km)
Ceiling: 25000 feet AGL
Clouds: scattered clouds at 6500 feet AGL
scattered clouds at 11000 feet AGL
broken clouds at 25000 feet AGL
Present Weather: no significant weather observed at this time
KDAB 152253Z 00000KT 10SM SCT065 SCT110 BKN250 29/24 A3001 RMK SLP162 T02890239

Conditions at: KDAB observed 15 July 2018  21:53 UTC
Temperature: 30.6°C (87°F)
Dewpoint: 24.4°C (76°F) [RH = 70%]
Pressure (altimeter): 30.01 inches Hg (1016.3 mb)
[Sea-level pressure: 1016.2 mb]
Winds: from the WSW (250 degrees) at 3 MPH (3 knots; 1.6 m/s)
Visibility: 10 or more miles (16+ km)
Ceiling: 25000 feet AGL
Clouds: scattered clouds at 6500 feet AGL
scattered clouds at 11000 feet AGL
broken clouds at 25000 feet AGL
Present Weather: no significant weather observed at this time
KDAB 152153Z 25003KT 00000 10SM SCT065 SCT110 BKN250 31/24 A3001 RMK SLP162 CB DSNT NW T03060244

Conditions at: KDAB observed 15 July 2018  20:53 UTC
Temperature: 30.6°C (87°F)
Dewpoint: 24.4°C (76°F) [RH = 70%]
Pressure (altimeter): 30.02 inches Hg (1016.7 mb)
[Sea-level pressure: 1016.4 mb]
Winds: from the WSW (250 degrees) at 3 MPH (3 knots; 1.6 m/s)
Visibility: 10 or more miles (16+ km)
Ceiling: 11000 feet AGL
Clouds: few clouds at 3000 feet AGL
scattered clouds at 6500 feet AGL
broken clouds at 11000 feet AGL
overcast cloud deck at 25000 feet AGL
Present Weather: no significant weather observed at this time
KDAB 152053Z 25003KT 10SM FEW030 SCT065 BKN110 OVC250 31/24 A3002 RMK RAE03 SLP164 CB DSNT NW-N P0000 600030 T03060244 56020

Conditions at: KDAB observed 15 July 2018  19:53 UTC
Temperature: 27.2°C (81°F)
Dewpoint: 24.4°C (76°F) [RH = 85%]
Pressure (altimeter): 30.03 inches Hg (1017.0 mb)
[Sea-level pressure: 1016.6 mb]
Winds: calm
Visibility: 10 or more miles (16+ km)
Ceiling: 15000 feet AGL
Clouds: few clouds at 3000 feet AGL
few clouds at 6500 feet AGL
scattered clouds at 11000 feet AGL
broken clouds at 15000 feet AGL
Present Weather: -RA  (light rain)
KDAB 151953Z 00000KT 10SM -RA FEW030 FEW065 SCT110 BKN150 BKN250 27/24 A3003 RMK TSE26 SLP166 TS DSIPTD CB DSNT SW-NW P0001 T02720244

Conditions at: KDAB observed 15 July 2018  19:28 UTC
Temperature: 25.0°C (77°F)
Dewpoint: 23.9°C (75°F) [RH = 94%]
Pressure (altimeter): 30.04 inches Hg (1017.4 mb)
Winds: calm
Visibility: 9 miles (14 km)
Ceiling: 15000 feet AGL
Clouds: few clouds at 3000 feet AGL
few clouds at 6500 feet AGL
scattered clouds at 11000 feet AGL
broken clouds at 15000 feet AGL
Present Weather: -RA  (light rain)
KDAB 151928Z 00000KT 9SM -RA FEW030 FEW065 SCT110 BKN150 BKN250 25/24 A3004 RMK TSE26 TS DSIPTD CB DSNT S SW-NW P0000 T02500239

Conditions at: KDAB observed 15 July 2018  18:53 UTC
Temperature: 23.9°C (75°F)
Dewpoint: 23.3°C (74°F) [RH = 96%]
Pressure (altimeter): 30.06 inches Hg (1018.0 mb)
Winds: from the SSE (150 degrees) at 6 MPH (5 knots; 2.6 m/s)
Visibility: 10 or more miles (16+ km)
Ceiling: 15000 feet AGL
Clouds: few clouds at 3000 feet AGL
scattered clouds at 11000 feet AGL
broken clouds at 15000 feet AGL
broken clouds at 25000 feet AGL
Present Weather: -TSRA  (light rain associated with thunderstorm(s))
KDAB 151853Z 15005KT 10SM -TSRA FEW030CB SCT110 BKN150 BKN250 24/23 A3006 RMK LTG DSNT S-W FRQ LTGICCG VC W TS VC W MOV S CB NE-SE MOV S CB DSNT S NW P0029 T02390233

Conditions at: KDAB observed 15 July 2018  18:27 UTC
Temperature: 23.9°C (75°F)
Dewpoint: 23.3°C (74°F) [RH = 96%]
Pressure (altimeter): 30.08 inches Hg (1018.7 mb)
Winds: from the SSE (150 degrees) at 6 MPH (5 knots; 2.6 m/s)
Visibility: 7 miles (11 km)
Ceiling: 9000 feet AGL
Clouds: few clouds at 2000 feet AGL
scattered clouds at 3200 feet AGL
broken clouds at 9000 feet AGL
broken clouds at 25000 feet AGL
Present Weather: -TSRA BR  (light rain associated with thunderstorm(s), mist)
KDAB 151827Z 15005KT 7SM -TSRA BR FEW020 SCT032CB BKN090 BKN250 24/23 A3008 RMK LTG DSNT SE-SW CONS LTGICCG OHD-SE-SW TS OHD-SE-SW MOV S CB NE-E MOV S CB DSNT W-NW P0029 T02390233

Conditions at: KDAB observed 15 July 2018  18:05 UTC
Temperature: 23.3°C (74°F)
Dewpoint: 23.3°C (74°F) [RH = 100%]
Pressure (altimeter): 30.08 inches Hg (1018.7 mb)
Winds: from the SE (130 degrees) at 8 MPH (7 knots; 3.6 m/s)
Visibility: 2.00 miles (3.22 km)
Ceiling: 3000 feet AGL
Clouds: few clouds at 2000 feet AGL
broken clouds at 3000 feet AGL
broken clouds at 7000 feet AGL
broken clouds at 25000 feet AGL
Present Weather: +TSRA BR  (heavy rain associated with thunderstorm(s), mist)
KDAB 151805Z 13007KT 2SM +TSRA BR FEW020 BKN030CB BKN070 BKN250 23/23 A3008 RMK VIS S-SW 1/2 CONS LTGICCG OHD-SE-SW TS OHD-SE-SW MOV S P0022 T02330233

Conditions at: KDAB observed 15 July 2018  17:53 UTC
Temperature: 23.3°C (74°F)
Dewpoint: 22.2°C (72°F) [RH = 94%]
Pressure (altimeter): 30.08 inches Hg (1018.7 mb)
[Sea-level pressure: 1018.4 mb]
Winds: from the ESE (120 degrees) at 6 MPH (5 knots; 2.6 m/s)
Visibility: 1.00 miles (1.61 km)
Ceiling: 3000 feet AGL
Clouds: broken clouds at 3000 feet AGL
broken clouds at 4500 feet AGL
broken clouds at 7500 feet AGL
broken clouds at 25000 feet AGL
Present Weather: +TSRA BR  (heavy rain associated with thunderstorm(s), mist)
KDAB 151753Z 12005KT 1SM +TSRA BR BKN030CB BKN045 BKN075 BKN250 23/22 A3008 RMK WSHFT 1705 TWR VIS 2 RAE1654B21 SLP184 VIS S-SW 1/2 CONS LTGICCG OHD-ALQDS TS OHD-ALQDS MOV S P0099 60099 T02330222 10322 20233 53002

Conditions at: KDAB observed 15 July 2018  17:40 UTC
Temperature: 25.0°C (77°F)
Dewpoint: 23.9°C (75°F) [RH = 94%]
Pressure (altimeter): 30.07 inches Hg (1018.4 mb)
Winds: from the N (10 degrees) at 14 MPH (12 knots; 6.2 m/s)
Visibility: 1.50 miles (2.41 km)
Ceiling: 3000 feet AGL
Clouds: broken clouds at 3000 feet AGL
broken clouds at 4500 feet AGL
overcast cloud deck at 7500 feet AGL
Present Weather: +TSRA BR  (heavy rain associated with thunderstorm(s), mist)
KDAB 151740Z 01012KT 1 1/2SM +TSRA BR BKN030CB BKN045 OVC075 25/24 A3007 RMK WSHFT 1705 LTG DSNT ALQDS RAE1654B21 CONS LTGICCG OHD-ALQDS TS OHD-ALQDS MOV S P0022 T02500239

Conditions at: KDAB observed 15 July 2018  17:31 UTC
Temperature: 25.6°C (78°F)
Dewpoint: 23.9°C (75°F) [RH = 90%]
Pressure (altimeter): 30.07 inches Hg (1018.4 mb)
Winds: from the ENE (60 degrees) at 14 MPH (12 knots; 6.2 m/s)
gusting to 24 MPH (21 knots; 10.9 m/s)
Visibility: 2.00 miles (3.22 km)
Ceiling: 3000 feet AGL
Clouds: broken clouds at 3000 feet AGL
broken clouds at 4500 feet AGL
overcast cloud deck at 9000 feet AGL
Present Weather: +TSRA BR  (heavy rain associated with thunderstorm(s), mist)
KDAB 151731Z 06012G21KT 2SM +TSRA BR BKN030CB BKN045 OVC090 26/24 A3007 RMK WSHFT 1705 RAE1654B21 FRQ LTGICCG OHD-ALQDS TS OHD-ALQDS MOV S P0010 T02560239

Conditions at: KDAB observed 15 July 2018  17:20 UTC
Temperature: 28.3°C (83°F)
Dewpoint: 25.0°C (77°F) [RH = 82%]
Pressure (altimeter): 30.07 inches Hg (1018.4 mb)
Winds: from the NNE (30 degrees) at 18 MPH (16 knots; 8.3 m/s)
Visibility: 10 or more miles (16+ km)
Ceiling: 3000 feet AGL
Clouds: broken clouds at 3000 feet AGL
broken clouds at 4500 feet AGL
broken clouds at 9000 feet AGL
broken clouds at 25000 feet AGL
Present Weather: -TSRA  (light rain associated with thunderstorm(s))
KDAB 151720Z 03016KT 10SM -TSRA BKN030CB BKN045 BKN090 BKN250 29/25 A3007 RMK WSHFT 1705 LTG DSNT ALQDS RAE1654B21 FRQ LTGICCG OHD-E-SE NW-N TS NW-N MOV S P0000 T02830250

Conditions at: KDAB observed 15 July 2018  16:53 UTC
Temperature: 31.7°C (89°F)
Dewpoint: 25.0°C (77°F) [RH = 68%]
Pressure (altimeter): 30.06 inches Hg (1018.0 mb)
[Sea-level pressure: 1017.8 mb]
Winds: from the NNE (30 degrees) at 7 MPH (6 knots; 3.1 m/s)
Visibility: 10 or more miles (16+ km)
Ceiling: 3500 feet AGL
Clouds: broken clouds at 3500 feet AGL
broken clouds at 9500 feet AGL
broken clouds at 15000 feet AGL
broken clouds at 25000 feet AGL
Present Weather: -TSRA  (light rain associated with thunderstorm(s))
KDAB 151653Z 03006KT 10SM -TSRA BKN035CB BKN095 BKN150 BKN250 32/25 A3006 RMK LTG DSNT NW TSB35 SLP178 OCNL LTGICCG NW-N TS NW-N MOV S TCU OHD-ALQDS CB DSNT SW T03170250

Conditions at: KDAB observed 15 July 2018  16:35 UTC
Temperature: 31.7°C (89°F)
Dewpoint: 23.9°C (75°F) [RH = 63%]
Pressure (altimeter): 30.07 inches Hg (1018.4 mb)
Winds: calm
Visibility: 10 or more miles (16+ km)
Ceiling: 3500 feet AGL
Clouds: broken clouds at 3500 feet AGL
broken clouds at 9500 feet AGL
broken clouds at 15000 feet AGL
broken clouds at 25000 feet AGL
Present Weather: TS  (thunderstorm)
KDAB 151635Z COR 00000KT 10SM TS BKN035CB BKN095 BKN150 BKN250 32/24 A3007 RMK TSB35 OCNL LTGICCG VC N TS VC N MOV S CB NW MOV S TCU OHD-ALQDS CB DSNT SW T03170239

Conditions at: KDAB observed 15 July 2018  15:53 UTC
Temperature: 31.7°C (89°F)
Dewpoint: 24.4°C (76°F) [RH = 65%]
Pressure (altimeter): 30.07 inches Hg (1018.4 mb)
[Sea-level pressure: 1018.1 mb]
Winds: from the W (260 degrees) at 7 MPH (6 knots; 3.1 m/s)
Visibility: 10 or more miles (16+ km)
Ceiling: 3000 feet AGL
Clouds: broken clouds at 3000 feet AGL
broken clouds at 15000 feet AGL
broken clouds at 25000 feet AGL
Present Weather: no significant weather observed at this time
KDAB 151553Z 26006KT 10SM BKN030TCU BKN150 BKN250 32/24 A3007 RMK SLP181 TCU OHD-ALQDS CB DSNT N T03170244

Conditions at: KDAB observed 15 July 2018  14:53 UTC
Temperature: 31.1°C (88°F)
Dewpoint: 25.0°C (77°F) [RH = 70%]
Pressure (altimeter): 30.07 inches Hg (1018.4 mb)
[Sea-level pressure: 1018.1 mb]
Winds: variable direction winds at 5 MPH (4 knots; 2.1 m/s)
Visibility: 10 or more miles (16+ km)
Ceiling: 25000 feet AGL
Clouds: few clouds at 2500 feet AGL
few clouds at 15000 feet AGL
broken clouds at 25000 feet AGL
Present Weather: no significant weather observed at this time
KDAB 151453Z VRB04KT 10SM FEW025 FEW150 BKN250 31/25 A3007 RMK SLP181 CB DSNT N NE T03110250 51003

Conditions at: KDAB observed 15 July 2018  13:53 UTC
Temperature: 28.9°C (84°F)
Dewpoint: 25.0°C (77°F) [RH = 80%]
Pressure (altimeter): 30.07 inches Hg (1018.4 mb)
[Sea-level pressure: 1018.1 mb]
Winds: from the WSW (250 degrees) at 8 MPH (7 knots; 3.6 m/s)
Visibility: 10 or more miles (16+ km)
Ceiling: 25000 feet AGL
Clouds: few clouds at 3000 feet AGL
few clouds at 18000 feet AGL
broken clouds at 25000 feet AGL
Present Weather: no significant weather observed at this time
KDAB 151353Z 25007KT 10SM FEW030 FEW180 BKN250 29/25 A3007 RMK SLP181 CB DSNT N W T02890250

Conditions at: KDAB observed 15 July 2018  12:53 UTC
Temperature: 26.1°C (79°F)
Dewpoint: 25.0°C (77°F) [RH = 94%]
Pressure (altimeter): 30.07 inches Hg (1018.4 mb)
[Sea-level pressure: 1018.1 mb]
Winds: from the SW (220 degrees) at 7 MPH (6 knots; 3.1 m/s)
Visibility: 9 miles (14 km)
Ceiling: 25000 feet AGL
Clouds: few clouds at 3000 feet AGL
few clouds at 18000 feet AGL
broken clouds at 25000 feet AGL
Present Weather: no significant weather observed at this time
KDAB 151253Z 22006KT 9SM FEW030 FEW180 BKN250 26/25 A3007 RMK SLP181 TCU DSNT N T02610250

Conditions at: KDAB observed 15 July 2018  11:53 UTC
Temperature: 25.0°C (77°F)
Dewpoint: 25.0°C (77°F) [RH = 100%]
Pressure (altimeter): 30.06 inches Hg (1018.0 mb)
[Sea-level pressure: 1017.8 mb]
Winds: from the WSW (250 degrees) at 3 MPH (3 knots; 1.6 m/s)
Visibility: 6 miles (10 km)
Ceiling: 25000 feet AGL
Clouds: few clouds at 3000 feet AGL
few clouds at 6000 feet AGL
scattered clouds at 18000 feet AGL
broken clouds at 25000 feet AGL
Present Weather: BR  (mist)
KDAB 151153Z 25003KT 6SM BR FEW030 FEW060 SCT180 BKN250 25/25 A3006 RMK SLP178 TCU DSNT N T02500250 10261 20244 53009

Conditions at: KDAB observed 15 July 2018  10:53 UTC
Temperature: 24.4°C (76°F)
Dewpoint: 24.4°C (76°F) [RH = 100%]
Pressure (altimeter): 30.04 inches Hg (1017.4 mb)
[Sea-level pressure: 1017.2 mb]
Winds: calm
Visibility: 7 miles (11 km)
Ceiling: at least 12,000 feet AGL
Clouds: scattered clouds at 20000 feet AGL
Present Weather: no significant weather observed at this time
KDAB 151053Z 00000KT 7SM SCT200 24/24 A3004 RMK SLP172 T02440244

Conditions at: KDAB observed 15 July 2018  09:53 UTC
Temperature: 24.4°C (76°F)
Dewpoint: 24.4°C (76°F) [RH = 100%]
Pressure (altimeter): 30.03 inches Hg (1017.0 mb)
[Sea-level pressure: 1016.9 mb]
Winds: from the SSW (200 degrees) at 3 MPH (3 knots; 1.6 m/s)
Visibility: 9 miles (14 km)
Ceiling: at least 12,000 feet AGL
Clouds: sky clear below 12,000 feet AGL
Present Weather: no significant weather observed at this time
KDAB 150953Z 20003KT 9SM CLR 24/24 A3003 RMK SLP169 T02440244

Conditions at: KDAB observed 15 July 2018  08:53 UTC
Temperature: 25.0°C (77°F)
Dewpoint: 24.4°C (76°F) [RH = 96%]
Pressure (altimeter): 30.03 inches Hg (1017.0 mb)
[Sea-level pressure: 1017.0 mb]
Winds: calm
Visibility: 9 miles (14 km)
Ceiling: at least 12,000 feet AGL
Clouds: sky clear below 12,000 feet AGL
Present Weather: no significant weather observed at this time
KDAB 150853Z 00000KT 9SM CLR 25/24 A3003 RMK SLP170 T02500244 55007

Conditions at: KDAB observed 15 July 2018  07:53 UTC
Temperature: 25.0°C (77°F)
Dewpoint: 24.4°C (76°F) [RH = 96%]
Pressure (altimeter): 30.03 inches Hg (1017.0 mb)
[Sea-level pressure: 1016.9 mb]
Winds: from the SW (230 degrees) at 3 MPH (3 knots; 1.6 m/s)
Visibility: 9 miles (14 km)
Ceiling: at least 12,000 feet AGL
Clouds: sky clear below 12,000 feet AGL
Present Weather: no significant weather observed at this time
KDAB 150753Z 23003KT 9SM CLR 25/24 A3003 RMK SLP169 T02500244

Conditions at: KDAB observed 15 July 2018  06:53 UTC
Temperature: 25.6°C (78°F)
Dewpoint: 25.0°C (77°F) [RH = 96%]
Pressure (altimeter): 30.04 inches Hg (1017.4 mb)
[Sea-level pressure: 1017.1 mb]
Winds: from the S (170 degrees) at 5 MPH (4 knots; 2.1 m/s)
Visibility: 9 miles (14 km)
Ceiling: at least 12,000 feet AGL
Clouds: sky clear below 12,000 feet AGL
Present Weather: no significant weather observed at this time
KDAB 150653Z 17004KT 9SM CLR 26/25 A3004 RMK SLP171 T02560250

Conditions at: KDAB observed 15 July 2018  05:53 UTC
Temperature: 26.1°C (79°F)
Dewpoint: 25.0°C (77°F) [RH = 94%]
Pressure (altimeter): 30.05 inches Hg (1017.7 mb)
[Sea-level pressure: 1017.6 mb]
Winds: calm
Visibility: 10 or more miles (16+ km)
Ceiling: at least 12,000 feet AGL
Clouds: sky clear below 12,000 feet AGL
Present Weather: no significant weather observed at this time
KDAB 150553Z 00000KT 10SM CLR 26/25 A3005 RMK SLP176 T02610250 10294 20256 51007

Conditions at: KDAB observed 15 July 2018  04:53 UTC
Temperature: 27.2°C (81°F)
Dewpoint: 25.0°C (77°F) [RH = 88%]
Pressure (altimeter): 30.07 inches Hg (1018.4 mb)
[Sea-level pressure: 1018.0 mb]
Winds: calm
Visibility: 10 or more miles (16+ km)
Ceiling: at least 12,000 feet AGL
Clouds: sky clear below 12,000 feet AGL
Present Weather: no significant weather observed at this time
KDAB 150453Z 00000KT 10SM CLR 27/25 A3007 RMK SLP180 T0272670250